Time;durP1;ratioP1;P1;durP2;ratioP2;P2;SDS_P1;SDS_P2;PMS_P1;PMS_P2;Temp;Humidity;BMP_temperature;BMP_pressure;BME280_temperature;BME280_humidity;BME280_pressure;Samples;Min_cycle;Max_cycle;Signal;HPM_P1;HPM_P2
2022/08/26 00:01:02;;;;;;;19.60;11.93;;;;;;;;;;5014828;28;20188;-84
2022/08/26 00:04:07;;;;;;;16.33;11.37;;;;;;;;;;5014349;28;20216;-84
2022/08/26 00:07:10;;;;;;;16.30;10.90;;;;;;;;;;5003062;28;20213;-84
2022/08/26 00:10:16;;;;;;;18.77;12.10;;;;;;;;;;5004024;28;20544;-84
2022/08/26 00:13:20;;;;;;;13.60;11.63;;;;;;;;;;5003222;28;20231;-85
2022/08/26 00:16:26;;;;;;;14.77;11.30;;;;;;;;;;5011666;28;20212;-84
2022/08/26 00:19:30;;;;;;;16.17;11.77;;;;;;;;;;5015217;28;20536;-84
2022/08/26 00:22:34;;;;;;;19.13;11.23;;;;;;;;;;5003060;28;20220;-84
2022/08/26 00:25:38;;;;;;;14.47;10.70;;;;;;;;;;5014623;28;20184;-84
2022/08/26 00:28:42;;;;;;;15.73;10.83;;;;;;;;;;5003406;28;20185;-83
2022/08/26 00:31:46;;;;;;;17.27;11.60;;;;;;;;;;5014152;28;20220;-84
2022/08/26 00:34:50;;;;;;;15.50;11.53;;;;;;;;;;5014303;28;20243;-84
2022/08/26 00:37:55;;;;;;;15.47;11.30;;;;;;;;;;5002562;28;20552;-84
2022/08/26 00:40:59;;;;;;;18.93;12.17;;;;;;;;;;5002943;28;20189;-84
2022/08/26 00:44:04;;;;;;;20.33;12.53;;;;;;;;;;5027623;23;20735;-83
2022/08/26 00:47:18;;;;;;;20.70;12.33;;;;;;;;;;4985196;28;20544;-83
2022/08/26 00:50:28;;;;;;;18.80;12.23;;;;;;;;;;4974134;28;20557;-83
2022/08/26 00:53:38;;;;;;;15.93;11.13;;;;;;;;;;4984786;28;20225;-85
2022/08/26 00:56:59;;;;;;;19.70;12.13;;;;;;;;;;4984512;28;20181;-83
2022/08/26 01:00:12;;;;;;;15.83;11.10;;;;;;;;;;4975663;28;20186;-83
2022/08/26 01:03:19;;;;;;;18.10;11.00;;;;;;;;;;4976139;28;20222;-83
2022/08/26 01:06:23;;;;;;;15.30;11.30;;;;;;;;;;4979596;28;20698;-86
2022/08/26 01:09:28;;;;;;;14.80;11.50;;;;;;;;;;4995529;28;20189;-85
2022/08/26 01:12:37;;;;;;;19.87;11.87;;;;;;;;;;4984596;28;20225;-83
2022/08/26 01:15:52;;;;;;;16.50;12.13;;;;;;;;;;4995976;28;20181;-85
2022/08/26 01:19:02;;;;;;;15.97;11.57;;;;;;;;;;4996178;28;20189;-85
2022/08/26 01:22:20;;;;;;;18.60;11.70;;;;;;;;;;4996340;28;20201;-84
2022/08/26 01:25:28;;;;;;;17.83;11.20;;;;;;;;;;4985688;28;20546;-85
2022/08/26 01:28:33;;;;;;;15.33;11.70;;;;;;;;;;4974665;28;20197;-85
2022/08/26 01:31:41;;;;;;;16.97;11.90;;;;;;;;;;4979323;28;20208;-85
2022/08/26 01:34:47;;;;;;;14.47;10.43;;;;;;;;;;4971249;28;20194;-85
2022/08/26 01:37:53;;;;;;;13.17;10.70;;;;;;;;;;4993972;28;20206;-85
2022/08/26 01:40:58;;;;;;;17.43;11.10;;;;;;;;;;4970521;28;20213;-85
2022/08/26 01:44:04;;;;;;;15.07;11.80;;;;;;;;;;4958757;28;20225;-85
2022/08/26 01:47:10;;;;;;;20.40;11.63;;;;;;;;;;4977656;28;20216;-85
2022/08/26 01:50:20;;;;;;;15.93;11.37;;;;;;;;;;5002109;28;20209;-85
2022/08/26 01:53:25;;;;;;;15.03;11.57;;;;;;;;;;5000465;28;20225;-85
2022/08/26 01:56:29;;;;;;;14.43;11.80;;;;;;;;;;5000346;28;20192;-85
2022/08/26 01:59:33;;;;;;;16.40;12.30;;;;;;;;;;4988700;28;20193;-86
2022/08/26 02:02:43;;;;;;;20.50;12.30;;;;;;;;;;4987734;28;20225;-85
2022/08/26 02:05:52;;;;;;;19.07;12.20;;;;;;;;;;4997854;28;20185;-85
2022/08/26 02:09:00;;;;;;;18.63;12.23;;;;;;;;;;5008941;28;20189;-85
2022/08/26 02:12:04;;;;;;;15.03;11.80;;;;;;;;;;4974614;28;20197;-85
2022/08/26 02:15:10;;;;;;;16.47;12.30;;;;;;;;;;4979895;28;20210;-85
2022/08/26 02:18:15;;;;;;;14.93;12.67;;;;;;;;;;4987589;28;20209;-85
2022/08/26 02:21:20;;;;;;;15.07;12.33;;;;;;;;;;4977985;28;20703;-85
2022/08/26 02:24:28;;;;;;;17.73;12.83;;;;;;;;;;4999790;28;20217;-85
2022/08/26 02:27:34;;;;;;;19.03;12.40;;;;;;;;;;5000397;28;20209;-85
2022/08/26 02:30:39;;;;;;;16.37;11.13;;;;;;;;;;4989397;28;20208;-85
2022/08/26 02:33:43;;;;;;;19.10;12.77;;;;;;;;;;4988545;28;20213;-85
2022/08/26 02:36:48;;;;;;;18.07;13.00;;;;;;;;;;4988656;28;20250;-86
2022/08/26 02:39:51;;;;;;;16.83;12.53;;;;;;;;;;4976943;28;20189;-85
2022/08/26 02:42:56;;;;;;;14.63;11.27;;;;;;;;;;4987703;28;20718;-85
2022/08/26 02:46:00;;;;;;;19.17;12.47;;;;;;;;;;4998676;28;20545;-85
2022/08/26 02:49:04;;;;;;;16.80;11.93;;;;;;;;;;4998504;28;20188;-84
2022/08/26 02:52:09;;;;;;;16.13;10.60;;;;;;;;;;4986961;28;20196;-85
2022/08/26 02:55:14;;;;;;;18.30;12.17;;;;;;;;;;4987461;28;20181;-84
2022/08/26 02:58:18;;;;;;;18.70;12.53;;;;;;;;;;4998193;28;20209;-85
2022/08/26 03:01:25;;;;;;;19.10;12.67;;;;;;;;;;4997984;28;20193;-85
2022/08/26 03:04:29;;;;;;;18.33;12.77;;;;;;;;;;4956463;28;20613;-85
2022/08/26 03:07:34;;;;;;;16.77;12.43;;;;;;;;;;4978663;28;20197;-85
2022/08/26 03:10:39;;;;;;;17.47;11.87;;;;;;;;;;4996903;28;20205;-85
2022/08/26 03:13:44;;;;;;;16.97;11.67;;;;;;;;;;4986044;28;20592;-85
2022/08/26 03:16:50;;;;;;;17.93;13.23;;;;;;;;;;5008278;28;20557;-85
2022/08/26 03:19:54;;;;;;;20.87;13.27;;;;;;;;;;4980686;28;20212;-85
2022/08/26 03:22:59;;;;;;;17.17;11.40;;;;;;;;;;4987713;28;20703;-85
2022/08/26 03:26:05;;;;;;;18.00;12.83;;;;;;;;;;4984494;28;20181;-85
2022/08/26 03:32:31;;;;;;;15.53;12.37;;;;;;;;;;4979323;28;20222;-86
2022/08/26 03:35:37;;;;;;;19.57;12.67;;;;;;;;;;4960327;28;20684;-86
2022/08/26 03:38:42;;;;;;;15.43;12.60;;;;;;;;;;4987789;28;20209;-86
2022/08/26 03:41:46;;;;;;;21.90;12.80;;;;;;;;;;4976744;28;20201;-86
2022/08/26 03:44:50;;;;;;;17.37;13.33;;;;;;;;;;4998862;28;20232;-86
2022/08/26 03:47:55;;;;;;;16.83;12.40;;;;;;;;;;4987834;28;20193;-86
2022/08/26 03:51:00;;;;;;;20.67;13.43;;;;;;;;;;4987474;28;20189;-86
2022/08/26 03:54:05;;;;;;;17.73;13.43;;;;;;;;;;4999205;28;20222;-86
2022/08/26 03:57:09;;;;;;;28.37;15.00;;;;;;;;;;4997540;28;20201;-86
2022/08/26 04:00:16;;;;;;;19.37;13.63;;;;;;;;;;4987121;28;20185;-86
2022/08/26 04:03:56;;;;;;;19.73;13.13;;;;;;;;;;4975069;28;20217;-86
2022/08/26 04:06:44;;;;;;;17.43;12.30;;;;;;;;;;4985744;28;20213;-86
2022/08/26 04:09:48;;;;;;;17.97;12.70;;;;;;;;;;4986079;28;20200;-86
2022/08/26 04:12:52;;;;;;;21.40;13.93;;;;;;;;;;4985810;28;20220;-87
2022/08/26 04:15:56;;;;;;;19.77;13.07;;;;;;;;;;4985232;28;20200;-87
2022/08/26 04:19:00;;;;;;;14.83;11.33;;;;;;;;;;4973109;28;20564;-87
2022/08/26 04:22:05;;;;;;;13.00;10.80;;;;;;;;;;4984381;28;20210;-87
2022/08/26 04:25:10;;;;;;;13.87;10.07;;;;;;;;;;4983819;28;20589;-87
2022/08/26 04:28:14;;;;;;;16.43;11.90;;;;;;;;;;4984094;28;20201;-85
2022/08/26 04:31:20;;;;;;;19.60;11.63;;;;;;;;;;4984267;28;20193;-88
2022/08/26 04:34:25;;;;;;;17.03;11.20;;;;;;;;;;4975486;28;20186;-88
2022/08/26 04:37:30;;;;;;;18.03;12.50;;;;;;;;;;4993227;28;20209;-88
2022/08/26 04:40:34;;;;;;;13.33;11.83;;;;;;;;;;4979576;28;20205;-89
2022/08/26 04:43:38;;;;;;;14.43;11.77;;;;;;;;;;4994761;28;20309;-89
2022/08/26 04:46:42;;;;;;;14.60;12.60;;;;;;;;;;4994945;28;20189;-89
2022/08/26 04:49:46;;;;;;;20.07;13.10;;;;;;;;;;4995234;28;20261;-88
2022/08/26 04:52:50;;;;;;;17.33;11.50;;;;;;;;;;4972606;28;20703;-88
2022/08/26 04:55:55;;;;;;;15.57;12.00;;;;;;;;;;4983061;28;20197;-89
2022/08/26 04:59:01;;;;;;;18.50;12.07;;;;;;;;;;4984386;28;20197;-89
2022/08/26 05:02:06;;;;;;;15.83;10.93;;;;;;;;;;4983638;28;20640;-88
2022/08/26 05:05:10;;;;;;;15.90;12.13;;;;;;;;;;5006045;28;20217;-86
2022/08/26 05:08:15;;;;;;;17.23;11.13;;;;;;;;;;4983776;28;20521;-86
2022/08/26 05:11:20;;;;;;;15.23;11.93;;;;;;;;;;4994657;28;20221;-89
2022/08/26 05:14:24;;;;;;;16.63;11.50;;;;;;;;;;4972670;28;20709;-89
2022/08/26 05:17:29;;;;;;;22.63;11.63;;;;;;;;;;4994967;28;20181;-89
2022/08/26 05:20:42;;;;;;;15.27;11.00;;;;;;;;;;4983574;28;20573;-88
2022/08/26 05:23:50;;;;;;;14.77;11.70;;;;;;;;;;4994131;28;20229;-88
2022/08/26 05:26:54;;;;;;;12.50;10.60;;;;;;;;;;4983287;28;20190;-88
2022/08/26 05:29:58;;;;;;;14.40;9.97;;;;;;;;;;4972073;28;20225;-88
2022/08/26 05:33:03;;;;;;;14.67;10.80;;;;;;;;;;4983423;28;20225;-88
2022/08/26 05:36:10;;;;;;;15.07;10.77;;;;;;;;;;4983134;28;20261;-88
2022/08/26 05:39:14;;;;;;;15.20;11.60;;;;;;;;;;4972125;28;20205;-88
2022/08/26 05:42:18;;;;;;;15.50;11.80;;;;;;;;;;4974783;28;20233;-88
2022/08/26 05:45:24;;;;;;;14.50;11.43;;;;;;;;;;4963451;28;20217;-87
2022/08/26 05:48:28;;;;;;;22.30;12.03;;;;;;;;;;4966332;28;20209;-87
2022/08/26 05:51:33;;;;;;;16.50;11.17;;;;;;;;;;4988821;28;20208;-88
2022/08/26 05:54:38;;;;;;;22.20;12.03;;;;;;;;;;4968364;28;20205;-87
2022/08/26 05:57:43;;;;;;;16.40;10.97;;;;;;;;;;4971273;28;20225;-88
2022/08/26 06:00:59;;;;;;;20.03;11.27;;;;;;;;;;4971456;28;20212;-88
2022/08/26 06:04:03;;;;;;;16.40;10.93;;;;;;;;;;4971553;28;20225;-88
2022/08/26 06:07:07;;;;;;;19.40;11.70;;;;;;;;;;4995914;28;20190;-88
2022/08/26 06:10:12;;;;;;;15.87;11.23;;;;;;;;;;4982477;28;20695;-88
2022/08/26 06:13:18;;;;;;;15.53;10.90;;;;;;;;;;4971809;28;20224;-88
2022/08/26 06:16:23;;;;;;;21.27;11.10;;;;;;;;;;4983043;28;20194;-88
2022/08/26 06:19:28;;;;;;;20.77;11.70;;;;;;;;;;4982451;28;20205;-88
2022/08/26 06:26:15;;;;;;;16.30;10.63;;;;;;;;;;4913130;29;20231;-87
2022/08/26 06:29:23;;;;;;;20.87;11.77;;;;;;;;;;4924560;29;20195;-88
2022/08/26 06:32:27;;;;;;;16.37;11.00;;;;;;;;;;4994109;28;20254;-88
2022/08/26 06:35:38;;;;;;;15.47;11.30;;;;;;;;;;4971842;28;20205;-88
2022/08/26 06:38:42;;;;;;;17.73;13.23;;;;;;;;;;4978226;28;20212;-88
2022/08/26 06:41:47;;;;;;;20.80;10.93;;;;;;;;;;4977175;28;20213;-87
2022/08/26 06:45:01;;;;;;;26.10;11.53;;;;;;;;;;4999443;23;20229;31
2022/08/26 06:48:06;;;;;;;18.07;10.57;;;;;;;;;;4914533;29;20223;-87
2022/08/26 06:51:18;;;;;;;18.30;10.50;;;;;;;;;;4925976;29;20551;-86
2022/08/26 06:54:22;;;;;;;17.63;11.63;;;;;;;;;;4936429;29;20192;-86
2022/08/26 06:57:27;;;;;;;21.40;12.80;;;;;;;;;;4915622;29;20208;-86
2022/08/26 07:00:32;;;;;;;14.00;11.40;;;;;;;;;;4918534;29;20212;-86
2022/08/26 07:03:36;;;;;;;20.40;12.23;;;;;;;;;;4908887;29;20216;-86
2022/08/26 07:06:45;;;;;;;15.43;11.07;;;;;;;;;;4929263;29;20239;-86
2022/08/26 07:09:50;;;;;;;15.23;11.50;;;;;;;;;;4916152;29;20576;-86
2022/08/26 07:12:54;;;;;;;13.50;11.33;;;;;;;;;;4903056;29;20201;-86
2022/08/26 07:15:58;;;;;;;19.53;13.90;;;;;;;;;;4901506;29;20228;-86
2022/08/26 07:19:03;;;;;;;17.43;13.57;;;;;;;;;;4916275;29;20207;-86
2022/08/26 07:22:07;;;;;;;19.97;12.87;;;;;;;;;;4921791;29;20209;-86
2022/08/26 07:25:11;;;;;;;19.83;13.20;;;;;;;;;;4909623;29;20338;-86
2022/08/26 07:28:16;;;;;;;17.03;12.17;;;;;;;;;;4918040;29;20695;-86
2022/08/26 07:31:22;;;;;;;21.57;13.67;;;;;;;;;;4894493;29;20208;-86
2022/08/26 07:34:27;;;;;;;18.17;12.37;;;;;;;;;;4926446;29;20208;-86
2022/08/26 07:37:31;;;;;;;21.40;12.23;;;;;;;;;;4916030;29;20209;-85
2022/08/26 07:40:35;;;;;;;17.80;13.47;;;;;;;;;;4920440;29;20227;-86
2022/08/26 07:43:40;;;;;;;19.77;12.20;;;;;;;;;;4921137;29;20221;-86
2022/08/26 07:46:44;;;;;;;20.87;12.17;;;;;;;;;;4916296;29;20239;-86
2022/08/26 07:49:48;;;;;;;22.40;12.07;;;;;;;;;;4932326;29;20540;-86
2022/08/26 07:52:52;;;;;;;19.30;12.10;;;;;;;;;;4920479;29;20191;-86
2022/08/26 07:55:57;;;;;;;17.60;12.43;;;;;;;;;;4921574;29;20710;-85
2022/08/26 07:59:02;;;;;;;18.87;12.30;;;;;;;;;;4910454;29;20196;-85
2022/08/26 08:02:07;;;;;;;17.57;12.63;;;;;;;;;;4919912;29;20560;-86
2022/08/26 08:05:13;;;;;;;18.30;12.30;;;;;;;;;;4930356;29;20707;-87
2022/08/26 08:08:18;;;;;;;20.77;12.37;;;;;;;;;;4907841;29;20203;-85
2022/08/26 08:11:25;;;;;;;15.77;12.00;;;;;;;;;;4913978;29;20213;-87
2022/08/26 08:14:30;;;;;;;13.57;9.97;;;;;;;;;;4919366;29;20195;-86
2022/08/26 08:17:33;;;;;;;16.83;9.53;;;;;;;;;;4919220;29;20544;-86
2022/08/26 08:20:38;;;;;;;20.73;12.00;;;;;;;;;;4907400;29;20208;-86
2022/08/26 08:23:42;;;;;;;14.03;10.40;;;;;;;;;;4904645;29;20221;-87
2022/08/26 08:26:47;;;;;;;14.30;10.35;;;;;;;;;;4915650;29;20731;-86
2022/08/26 08:29:55;;;;;;;17.55;10.30;;;;;;;;;;4889044;29;20212;-86
2022/08/26 08:33:00;;;;;;;11.83;9.50;;;;;;;;;;4916887;29;20204;-86
2022/08/26 08:36:04;;;;;;;14.82;9.07;;;;;;;;;;4915627;29;20218;-86
2022/08/26 08:39:09;;;;;;;16.45;8.60;;;;;;;;;;4910671;29;20208;-86
2022/08/26 08:42:37;;;;;;;16.70;8.10;;;;;;;;;;4888451;29;20193;-86
2022/08/26 08:45:50;;;;;;;13.73;8.82;;;;;;;;;;4899430;29;20238;-87
2022/08/26 08:48:58;;;;;;;12.32;8.07;;;;;;;;;;4899378;29;20211;-88
2022/08/26 08:52:12;;;;;;;15.35;8.13;;;;;;;;;;4892684;29;20219;-88
2022/08/26 08:55:16;;;;;;;13.30;8.25;;;;;;;;;;4890456;29;20223;-88
2022/08/26 08:58:29;;;;;;;16.48;9.00;;;;;;;;;;4892849;29;20203;-87
2022/08/26 09:01:43;;;;;;;13.23;8.57;;;;;;;;;;4890811;29;20191;-87
2022/08/26 09:04:52;;;;;;;11.38;8.23;;;;;;;;;;4921894;29;20214;-85
2022/08/26 09:08:03;;;;;;;16.33;7.70;;;;;;;;;;4926201;29;20202;-86
2022/08/26 09:11:08;;;;;;;11.77;7.18;;;;;;;;;;4899075;29;20188;-86
2022/08/26 09:14:12;;;;;;;13.82;7.38;;;;;;;;;;4909863;29;20196;-86
2022/08/26 09:17:38;;;;;;;9.70;6.20;;;;;;;;;;4910003;29;20224;-86
2022/08/26 09:21:04;;;;;;;12.27;7.68;;;;;;;;;;4898651;29;20190;-86
2022/08/26 09:24:09;;;;;;;11.45;6.85;;;;;;;;;;4896621;29;20547;-87
2022/08/26 09:27:41;;;;;;;12.80;7.00;;;;;;;;;;4918004;29;20567;-88
2022/08/26 09:30:58;;;;;;;10.35;7.07;;;;;;;;;;4898358;29;20206;-88
2022/08/26 09:34:18;;;;;;;12.55;7.20;;;;;;;;;;4905254;29;20212;-87
2022/08/26 09:37:37;;;;;;;15.52;6.85;;;;;;;;;;4897029;29;20193;-86
2022/08/26 09:40:54;;;;;;;11.70;7.32;;;;;;;;;;4907826;29;20193;-87
2022/08/26 09:44:11;;;;;;;9.95;7.25;;;;;;;;;;4895984;29;20189;-86
2022/08/26 09:47:21;;;;;;;11.68;7.60;;;;;;;;;;4917707;29;20585;-85
2022/08/26 09:50:32;;;;;;;13.38;7.10;;;;;;;;;;4896212;29;20194;-88
2022/08/26 09:53:50;;;;;;;12.68;6.75;;;;;;;;;;4895740;29;20188;-87
2022/08/26 09:57:29;;;;;;;13.27;7.38;;;;;;;;;;4906263;29;20225;-86
2022/08/26 10:00:37;;;;;;;16.40;7.60;;;;;;;;;;4917253;29;20202;-86
2022/08/26 10:03:41;;;;;;;12.25;6.97;;;;;;;;;;4891697;29;20598;-88
2022/08/26 10:07:01;;;;;;;12.98;6.50;;;;;;;;;;4898809;29;20239;-88
2022/08/26 10:10:21;;;;;;;15.25;7.35;;;;;;;;;;4887234;29;20211;-89
2022/08/26 10:13:32;;;;;;;13.80;7.75;;;;;;;;;;4898871;29;20261;-88
2022/08/26 10:16:49;;;;;;;12.85;7.22;;;;;;;;;;4898120;29;20230;-88
2022/08/26 10:20:01;;;;;;;17.83;8.02;;;;;;;;;;4899080;29;20196;-88
2022/08/26 10:23:17;;;;;;;10.90;7.13;;;;;;;;;;4909540;29;20193;-87
2022/08/26 10:26:29;;;;;;;15.55;7.50;;;;;;;;;;4909289;29;20232;-88
2022/08/26 10:29:44;;;;;;;11.18;7.40;;;;;;;;;;4909834;29;20665;-88
2022/08/26 10:32:59;;;;;;;23.67;8.20;;;;;;;;;;4910443;29;20192;-88
2022/08/26 10:36:47;;;;;;;19.77;8.25;;;;;;;;;;4912644;29;20244;-85
2022/08/26 10:39:38;;;;;;;14.00;7.43;;;;;;;;;;4924660;29;20578;-86
2022/08/26 10:42:48;;;;;;;20.45;8.82;;;;;;;;;;4880528;29;20194;-87
2022/08/26 10:46:01;;;;;;;17.27;8.02;;;;;;;;;;4880694;29;20746;-91
2022/08/26 10:49:12;;;;;;;18.48;7.82;;;;;;;;;;4919506;29;20216;-91
2022/08/26 10:52:31;;;;;;;12.77;7.35;;;;;;;;;;4912928;29;20230;-89
2022/08/26 10:55:42;;;;;;;19.55;8.32;;;;;;;;;;4923846;29;20237;-89
2022/08/26 10:59:20;;;;;;;11.90;7.55;;;;;;;;;;4913745;29;20211;-90
2022/08/26 11:02:30;;;;;;;19.27;8.20;;;;;;;;;;4912590;29;22134;-90
2022/08/26 11:05:34;;;;;;;28.67;9.35;;;;;;;;;;4911377;29;20242;-84
2022/08/26 11:08:46;;;;;;;18.35;7.65;;;;;;;;;;4908540;29;20215;-86
2022/08/26 11:11:50;;;;;;;16.55;7.30;;;;;;;;;;4890506;29;20208;-87
2022/08/26 11:14:55;;;;;;;18.10;7.70;;;;;;;;;;4900834;29;20194;-84
2022/08/26 11:18:02;;;;;;;11.15;7.07;;;;;;;;;;4901765;29;20185;-85
2022/08/26 11:21:43;;;;;;;11.85;7.85;;;;;;;;;;4900990;29;20666;-87
2022/08/26 11:24:53;;;;;;;17.40;8.13;;;;;;;;;;4919421;29;20691;-85
2022/08/26 11:27:58;;;;;;;19.08;9.13;;;;;;;;;;4900459;29;20231;-85
2022/08/26 11:31:31;;;;;;;19.27;8.75;;;;;;;;;;4902144;29;20670;-85
2022/08/26 11:34:56;;;;;;;17.73;7.72;;;;;;;;;;4898140;29;20203;-86
2022/08/26 11:38:26;;;;;;;18.35;7.43;;;;;;;;;;4901185;29;20188;-86
2022/08/26 11:41:32;;;;;;;15.95;7.97;;;;;;;;;;4890702;29;20196;-86
2022/08/26 11:44:42;;;;;;;14.43;7.10;;;;;;;;;;4890781;29;20668;-86
2022/08/26 11:47:46;;;;;;;17.65;8.27;;;;;;;;;;4911156;29;20208;-86
2022/08/26 11:51:00;;;;;;;25.27;8.30;;;;;;;;;;4901758;29;20190;-87
2022/08/26 11:54:18;;;;;;;17.98;8.75;;;;;;;;;;4891539;29;20199;-85
2022/08/26 11:57:23;;;;;;;21.67;8.98;;;;;;;;;;4903189;29;20201;-86
2022/08/26 12:00:30;;;;;;;16.70;8.30;;;;;;;;;;4908613;29;20197;-86
2022/08/26 12:03:40;;;;;;;20.10;8.25;;;;;;;;;;4908508;29;20543;-86
2022/08/26 12:06:51;;;;;;;16.35;8.27;;;;;;;;;;4896542;29;20241;-86
2022/08/26 12:10:00;;;;;;;14.82;8.35;;;;;;;;;;4900166;29;20213;-86
2022/08/26 12:13:05;;;;;;;34.50;9.02;;;;;;;;;;4893006;29;20215;-89
2022/08/26 12:16:09;;;;;;;19.52;8.57;;;;;;;;;;4900537;29;20229;-86
2022/08/26 12:19:25;;;;;;;15.27;8.35;;;;;;;;;;4907708;29;20224;-83
2022/08/26 12:22:37;;;;;;;16.05;8.30;;;;;;;;;;4924960;29;20189;-86
2022/08/26 12:25:41;;;;;;;14.70;8.40;;;;;;;;;;4912082;29;20229;-85
2022/08/26 12:28:58;;;;;;;14.88;8.30;;;;;;;;;;4921062;29;20194;-85
2022/08/26 12:32:23;;;;;;;16.67;8.27;;;;;;;;;;4909894;29;20200;-85
2022/08/26 12:35:28;;;;;;;18.83;7.47;;;;;;;;;;4920000;29;20231;-84
2022/08/26 12:38:35;;;;;;;16.98;9.35;;;;;;;;;;4901948;29;20201;-85
2022/08/26 12:41:45;;;;;;;17.05;8.27;;;;;;;;;;4918568;29;20219;-85
2022/08/26 12:45:03;;;;;;;19.58;8.55;;;;;;;;;;4936789;29;20212;-85
2022/08/26 12:48:35;;;;;;;19.77;8.50;;;;;;;;;;4905412;29;20698;-85
2022/08/26 12:51:41;;;;;;;14.73;7.30;;;;;;;;;;4913189;29;20219;-84
2022/08/26 12:54:57;;;;;;;21.20;7.55;;;;;;;;;;4914065;29;20220;-85
2022/08/26 12:58:35;;;;;;;11.95;6.57;;;;;;;;;;4925845;29;20216;-84
2022/08/26 13:01:41;;;;;;;13.82;6.75;;;;;;;;;;4918278;29;20190;-84
2022/08/26 13:04:46;;;;;;;17.13;6.53;;;;;;;;;;4924135;29;20184;-84
2022/08/26 13:08:23;;;;;;;10.77;6.57;;;;;;;;;;4934474;29;20212;-84
2022/08/26 13:11:54;;;;;;;14.63;6.70;;;;;;;;;;4923185;29;20188;-84
2022/08/26 13:15:00;;;;;;;16.30;6.25;;;;;;;;;;4922983;29;20190;-84
2022/08/26 13:18:04;;;;;;;16.60;7.00;;;;;;;;;;4922126;29;20199;-84
2022/08/26 13:21:21;;;;;;;15.45;6.65;;;;;;;;;;4922196;29;20186;-84
2022/08/26 13:24:32;;;;;;;13.05;6.70;;;;;;;;;;4933194;29;20185;-85
2022/08/26 13:27:37;;;;;;;20.27;7.10;;;;;;;;;;4931910;29;20217;-85
2022/08/26 13:30:44;;;;;;;16.60;6.40;;;;;;;;;;4931992;29;20199;-85
2022/08/26 13:33:48;;;;;;;21.25;6.88;;;;;;;;;;4919594;29;20216;-85
2022/08/26 13:36:55;;;;;;;15.13;6.55;;;;;;;;;;4919134;29;20224;-85
2022/08/26 13:39:59;;;;;;;17.52;6.35;;;;;;;;;;4930351;29;20193;-85
2022/08/26 13:43:03;;;;;;;14.88;6.68;;;;;;;;;;4929932;29;20214;-85
2022/08/26 13:46:07;;;;;;;11.02;6.30;;;;;;;;;;4929480;29;20233;-85
2022/08/26 13:49:12;;;;;;;17.00;7.20;;;;;;;;;;4929214;29;20212;-85
2022/08/26 13:52:16;;;;;;;13.05;6.07;;;;;;;;;;4917667;29;20562;-85
2022/08/26 13:55:20;;;;;;;16.58;7.35;;;;;;;;;;4917969;29;20242;-86
2022/08/26 13:58:25;;;;;;;16.55;6.60;;;;;;;;;;4928314;29;20196;-85
2022/08/26 14:01:31;;;;;;;15.50;6.40;;;;;;;;;;4917501;29;20193;-85
2022/08/26 14:04:35;;;;;;;24.25;7.05;;;;;;;;;;4908605;29;20205;-85
2022/08/26 14:07:39;;;;;;;13.75;6.10;;;;;;;;;;4898144;29;20704;-86
2022/08/26 14:10:43;;;;;;;14.82;6.10;;;;;;;;;;4919913;29;20691;-86
2022/08/26 14:13:48;;;;;;;16.10;6.07;;;;;;;;;;4910250;29;20211;-86
2022/08/26 14:16:52;;;;;;;16.38;6.00;;;;;;;;;;4920106;29;20248;-87
2022/08/26 14:19:56;;;;;;;13.95;6.43;;;;;;;;;;4916372;29;20200;-86
2022/08/26 14:23:01;;;;;;;15.75;7.20;;;;;;;;;;4919022;29;20600;-86
2022/08/26 14:26:09;;;;;;;19.15;6.78;;;;;;;;;;4907217;29;20235;-85
2022/08/26 14:29:14;;;;;;;18.05;5.72;;;;;;;;;;4916362;29;20263;-85
2022/08/26 14:32:23;;;;;;;13.30;6.25;;;;;;;;;;4906816;29;20197;-87
2022/08/26 14:35:29;;;;;;;17.75;6.50;;;;;;;;;;4916507;29;20228;-87
2022/08/26 14:38:33;;;;;;;24.35;6.68;;;;;;;;;;4916165;29;20206;-88
2022/08/26 14:41:44;;;;;;;13.38;5.93;;;;;;;;;;4930678;29;20216;-87
2022/08/26 14:44:54;;;;;;;13.23;6.10;;;;;;;;;;4906686;29;20205;-88
2022/08/26 14:47:58;;;;;;;13.00;6.40;;;;;;;;;;4907737;29;20228;-87
2022/08/26 14:51:04;;;;;;;18.55;6.65;;;;;;;;;;4901273;29;20196;-88
2022/08/26 14:54:12;;;;;;;14.50;6.32;;;;;;;;;;4918140;29;20204;-87
2022/08/26 14:57:17;;;;;;;9.32;5.53;;;;;;;;;;4901260;29;20610;-85
2022/08/26 15:00:22;;;;;;;14.05;6.03;;;;;;;;;;4906768;29;20193;-86
2022/08/26 15:03:26;;;;;;;17.75;6.35;;;;;;;;;;4916914;29;20205;-88
2022/08/26 15:06:34;;;;;;;11.15;6.10;;;;;;;;;;4920025;29;20232;-88
2022/08/26 15:09:38;;;;;;;12.57;6.00;;;;;;;;;;4927103;29;20758;-85
2022/08/26 15:12:43;;;;;;;13.07;5.75;;;;;;;;;;4919056;29;20211;-84
2022/08/26 15:15:47;;;;;;;8.25;5.20;;;;;;;;;;4899587;29;20230;-84
2022/08/26 15:18:52;;;;;;;11.73;5.53;;;;;;;;;;4914618;29;20185;-84
2022/08/26 15:21:56;;;;;;;13.32;5.78;;;;;;;;;;4918849;29;20562;-84
2022/08/26 15:25:01;;;;;;;20.02;5.80;;;;;;;;;;4900774;29;20652;-84
2022/08/26 15:28:05;;;;;;;12.20;5.55;;;;;;;;;;4913022;29;20223;-84
2022/08/26 15:31:09;;;;;;;12.48;5.22;;;;;;;;;;4912547;29;20192;-84
2022/08/26 15:34:13;;;;;;;15.48;5.35;;;;;;;;;;4918066;29;20211;-84
2022/08/26 15:37:18;;;;;;;11.48;5.20;;;;;;;;;;4900565;29;20240;-84
2022/08/26 15:40:24;;;;;;;15.88;5.25;;;;;;;;;;4900105;29;20564;-84
2022/08/26 15:43:28;;;;;;;10.18;5.30;;;;;;;;;;4890300;29;20221;-85
2022/08/26 15:46:33;;;;;;;10.27;5.05;;;;;;;;;;4913539;29;20741;-85
2022/08/26 15:49:37;;;;;;;13.50;5.10;;;;;;;;;;4909074;29;20211;-86
2022/08/26 15:52:41;;;;;;;10.30;4.85;;;;;;;;;;4893287;29;20208;-85
2022/08/26 15:55:45;;;;;;;15.50;5.57;;;;;;;;;;4929942;29;20228;-84
2022/08/26 15:58:49;;;;;;;12.68;4.95;;;;;;;;;;4902728;29;20707;-84
2022/08/26 16:01:54;;;;;;;12.93;5.00;;;;;;;;;;4902946;29;20209;-84
2022/08/26 16:04:59;;;;;;;8.77;5.25;;;;;;;;;;4907910;29;20206;-84
2022/08/26 16:08:05;;;;;;;13.18;5.90;;;;;;;;;;4899299;29;20220;-84
2022/08/26 16:11:10;;;;;;;19.85;7.82;;;;;;;;;;4906817;29;20211;-85
2022/08/26 16:14:14;;;;;;;16.73;7.55;;;;;;;;;;4912344;29;20563;-84
2022/08/26 16:17:19;;;;;;;18.90;8.35;;;;;;;;;;4905368;29;20230;-84
2022/08/26 16:20:23;;;;;;;18.25;8.15;;;;;;;;;;4907783;29;20214;-84
2022/08/26 16:23:27;;;;;;;15.90;8.18;;;;;;;;;;4920358;29;20566;-85
2022/08/26 16:26:34;;;;;;;17.95;8.35;;;;;;;;;;4907825;29;20235;-85
2022/08/26 16:29:38;;;;;;;23.70;9.57;;;;;;;;;;4917702;29;20219;-86
2022/08/26 16:32:42;;;;;;;15.10;9.05;;;;;;;;;;4917779;29;20205;-86
2022/08/26 16:35:46;;;;;;;15.02;8.25;;;;;;;;;;4915811;29;20244;-86
2022/08/26 16:38:54;;;;;;;13.10;7.78;;;;;;;;;;4899610;29;20216;-85
2022/08/26 16:41:57;;;;;;;25.30;9.23;;;;;;;;;;4908178;29;20218;-83
2022/08/26 16:45:03;;;;;;;21.33;8.75;;;;;;;;;;4903644;29;20572;-83
2022/08/26 16:48:08;;;;;;;18.50;9.77;;;;;;;;;;4917247;29;20235;-83
2022/08/26 16:51:16;;;;;;;20.25;8.20;;;;;;;;;;4921044;29;20213;-83
2022/08/26 16:54:21;;;;;;;17.42;8.18;;;;;;;;;;4904654;29;20212;-83
2022/08/26 16:57:25;;;;;;;19.30;9.15;;;;;;;;;;4907617;29;20221;-83
2022/08/26 17:00:31;;;;;;;19.33;8.90;;;;;;;;;;4919603;29;20192;-83
2022/08/26 17:03:35;;;;;;;22.50;9.63;;;;;;;;;;4913694;29;20210;-84
2022/08/26 17:06:40;;;;;;;19.45;9.40;;;;;;;;;;4910469;29;20240;-84
2022/08/26 17:09:44;;;;;;;24.67;9.45;;;;;;;;;;4910386;29;20225;-84
2022/08/26 17:12:48;;;;;;;30.58;9.85;;;;;;;;;;4901025;29;20572;-83
2022/08/26 17:15:52;;;;;;;17.17;8.98;;;;;;;;;;4902193;29;20234;-83
2022/08/26 17:18:58;;;;;;;17.20;9.23;;;;;;;;;;4915349;29;20201;-83
2022/08/26 17:22:02;;;;;;;18.80;9.20;;;;;;;;;;4908980;29;20207;-83
2022/08/26 17:25:13;;;;;;;21.03;9.33;;;;;;;;;;4901709;29;20222;-83
2022/08/26 17:28:17;;;;;;;22.50;9.60;;;;;;;;;;4908969;29;20241;-83
2022/08/26 17:31:22;;;;;;;27.70;9.77;;;;;;;;;;4915681;29;20200;-83
2022/08/26 17:34:26;;;;;;;19.13;9.10;;;;;;;;;;4906358;29;20217;-83
2022/08/26 17:37:31;;;;;;;14.30;8.83;;;;;;;;;;4902905;29;20693;-84
2022/08/26 17:40:35;;;;;;;17.77;9.83;;;;;;;;;;4928233;29;20265;-83
2022/08/26 17:43:39;;;;;;;18.07;9.67;;;;;;;;;;4918186;29;20203;-84
2022/08/26 17:46:43;;;;;;;15.13;9.87;;;;;;;;;;4899589;29;20229;-84
2022/08/26 17:49:48;;;;;;;23.90;9.80;;;;;;;;;;4898952;29;20232;-84
2022/08/26 17:52:52;;;;;;;17.60;9.27;;;;;;;;;;4899115;29;20215;-84
2022/08/26 17:55:56;;;;;;;28.13;11.17;;;;;;;;;;4899489;29;20237;-84
2022/08/26 17:59:00;;;;;;;17.47;10.93;;;;;;;;;;4905495;29;20201;-84
2022/08/26 18:02:05;;;;;;;20.80;11.40;;;;;;;;;;4899733;29;20190;-84
2022/08/26 18:05:12;;;;;;;16.07;10.50;;;;;;;;;;4909745;29;20185;-84
2022/08/26 18:08:17;;;;;;;18.30;8.80;;;;;;;;;;4897518;29;20220;-86
2022/08/26 18:11:25;;;;;;;18.93;8.17;;;;;;;;;;4888389;29;20199;-85
2022/08/26 18:14:31;;;;;;;13.20;7.80;;;;;;;;;;4899182;29;20182;-86
2022/08/26 18:17:36;;;;;;;12.57;7.47;;;;;;;;;;4899643;29;20678;-84
2022/08/26 18:20:42;;;;;;;16.07;7.70;;;;;;;;;;4917336;29;20208;-83
2022/08/26 18:23:47;;;;;;;11.40;6.57;;;;;;;;;;4935216;29;20199;-84
2022/08/26 18:26:51;;;;;;;9.27;5.33;;;;;;;;;;4924244;29;20248;-84